Time;durP1;ratioP1;P1;durP2;ratioP2;P2;SDS_P1;SDS_P2;PMS_P1;PMS_P2;Temp;Humidity;BMP_temperature;BMP_pressure;BME280_temperature;BME280_humidity;BME280_pressure;Samples;Min_cycle;Max_cycle;Signal;HPM_P1;HPM_P2
2023/06/27 00:00:13;;;;;;;;;;;13.20;99.90;;;;;;5031784;28;20020;-90
2023/06/27 00:02:39;;;;;;;;;;;13.20;99.90;;;;;;5040123;28;19928;-92
2023/06/27 00:05:05;;;;;;;;;;;13.10;99.90;;;;;;5046965;28;20276;-92
2023/06/27 00:07:31;;;;;;;;;;;13.10;99.90;;;;;;5049537;28;19983;-92
2023/06/27 00:09:57;;;;;;;;;;;13.10;99.90;;;;;;5050770;28;20004;-89
2023/06/27 00:12:22;;;;;;;;;;;13.00;99.90;;;;;;5044731;28;20394;-92
2023/06/27 00:14:48;;;;;;;;;;;13.00;99.90;;;;;;5044732;28;19932;-92
2023/06/27 00:17:16;;;;;;;;;;;13.00;99.90;;;;;;5055544;28;19925;-91
2023/06/27 00:19:46;;;;;;;;;;;12.90;99.90;;;;;;5037580;28;20303;-91
2023/06/27 00:22:11;;;;;;;;;;;12.90;99.90;;;;;;5046646;28;19925;-93
2023/06/27 00:24:37;;;;;;;;;;;12.80;99.90;;;;;;5048302;28;20011;-92
2023/06/27 00:27:03;;;;;;;;;;;12.80;99.90;;;;;;5030076;28;19986;-93
2023/06/27 00:29:29;;;;;;;;;;;12.80;99.90;;;;;;5046715;28;20269;-92
2023/06/27 00:31:55;;;;;;;;;;;12.70;99.90;;;;;;5038767;28;19932;-92
2023/06/27 00:34:21;;;;;;;;;;;12.70;99.90;;;;;;5047791;28;20400;-92
2023/06/27 00:36:46;;;;;;;;;;;12.60;99.90;;;;;;5047115;28;19925;-92
2023/06/27 00:39:12;;;;;;;;;;;12.60;99.90;;;;;;5048553;28;19974;-92
2023/06/27 00:41:37;;;;;;;;;;;12.60;99.90;;;;;;5049501;28;19926;-91
2023/06/27 00:44:06;;;;;;;;;;;12.60;99.90;;;;;;5055154;28;20365;-91
2023/06/27 00:46:38;;;;;;;;;;;12.60;99.90;;;;;;5050257;28;19925;-92
2023/06/27 00:49:06;;;;;;;;;;;12.60;99.90;;;;;;5053631;28;19925;-92
2023/06/27 00:51:32;;;;;;;;;;;12.60;99.90;;;;;;5053671;28;19931;-92
2023/06/27 00:53:58;;;;;;;;;;;12.60;99.90;;;;;;5044330;28;19925;-91
2023/06/27 00:56:26;;;;;;;;;;;12.60;99.90;;;;;;5042012;28;19925;-91
2023/06/27 00:58:53;;;;;;;;;;;12.60;99.90;;;;;;5044822;28;19925;-90
2023/06/27 01:01:19;;;;;;;;;;;12.60;99.90;;;;;;5044737;28;19929;-91
2023/06/27 01:03:45;;;;;;;;;;;12.60;99.90;;;;;;5027160;28;19948;-92
2023/06/27 01:06:14;;;;;;;;;;;12.60;99.90;;;;;;5051667;28;19971;-92
2023/06/27 01:08:46;;;;;;;;;;;12.60;99.90;;;;;;5045139;28;19925;-92
2023/06/27 01:11:17;;;;;;;;;;;12.50;99.90;;;;;;5032481;28;20265;-92
2023/06/27 01:13:54;;;;;;;;;;;12.50;99.90;;;;;;5047476;28;19984;-92
2023/06/27 01:16:21;;;;;;;;;;;12.40;99.90;;;;;;5043006;28;19928;-91
2023/06/27 01:18:47;;;;;;;;;;;12.40;99.90;;;;;;5052525;28;19972;-92
2023/06/27 01:21:14;;;;;;;;;;;12.40;99.90;;;;;;5052369;28;19967;-92
2023/06/27 01:24:06;;;;;;;;;;;12.30;99.90;;;;;;5033498;28;19926;-92
2023/06/27 01:26:31;;;;;;;;;;;12.30;99.90;;;;;;5043825;28;19925;-91
2023/06/27 01:28:57;;;;;;;;;;;12.40;99.90;;;;;;5041205;28;19932;-92
2023/06/27 01:31:44;;;;;;;;;;;12.40;99.90;;;;;;5049494;28;19946;-92
2023/06/27 01:34:10;;;;;;;;;;;12.30;99.90;;;;;;5030058;28;20270;-92
2023/06/27 01:36:41;;;;;;;;;;;12.30;99.90;;;;;;5052957;28;19931;-91
2023/06/27 01:39:08;;;;;;;;;;;12.20;99.90;;;;;;5040729;28;20337;-92
2023/06/27 01:41:37;;;;;;;;;;;12.20;99.90;;;;;;5047477;28;19925;-92
2023/06/27 01:44:03;;;;;;;;;;;12.20;99.90;;;;;;5046855;28;19925;-91
2023/06/27 01:46:29;;;;;;;;;;;12.20;99.90;;;;;;5049909;28;20340;-93
2023/06/27 01:48:55;;;;;;;;;;;12.10;99.90;;;;;;5051984;28;19932;-91
2023/06/27 01:51:21;;;;;;;;;;;12.10;99.90;;;;;;5029855;28;19995;-92
2023/06/27 01:53:46;;;;;;;;;;;12.10;99.90;;;;;;5041664;28;20376;-92
2023/06/27 01:56:12;;;;;;;;;;;12.10;99.90;;;;;;5048230;28;19925;-91
2023/06/27 01:58:38;;;;;;;;;;;12.10;99.90;;;;;;5018983;28;20360;-92
2023/06/27 02:01:04;;;;;;;;;;;12.10;99.90;;;;;;5039521;28;20056;-92
2023/06/27 02:03:30;;;;;;;;;;;12.10;99.90;;;;;;5035641;28;19986;-93
2023/06/27 02:05:55;;;;;;;;;;;12.10;99.90;;;;;;5043592;28;19932;-92
2023/06/27 02:08:21;;;;;;;;;;;12.10;99.90;;;;;;5053242;28;19925;-92
2023/06/27 02:10:46;;;;;;;;;;;12.10;99.90;;;;;;5039342;28;19925;-91
2023/06/27 02:13:12;;;;;;;;;;;12.00;99.90;;;;;;5043882;28;19925;-92
2023/06/27 02:15:38;;;;;;;;;;;12.00;99.90;;;;;;5051572;28;19928;-93
2023/06/27 02:18:04;;;;;;;;;;;11.90;99.90;;;;;;5025917;28;19975;-92
2023/06/27 02:20:32;;;;;;;;;;;11.90;99.90;;;;;;5047640;28;19936;-92
2023/06/27 02:22:58;;;;;;;;;;;11.80;99.90;;;;;;5052041;28;19924;-93
2023/06/27 02:25:24;;;;;;;;;;;11.80;99.90;;;;;;5034847;28;20373;-93
2023/06/27 02:27:52;;;;;;;;;;;11.80;99.90;;;;;;5040666;28;20008;-93
2023/06/27 02:30:18;;;;;;;;;;;11.80;99.90;;;;;;5048712;28;20024;-91
2023/06/27 02:32:43;;;;;;;;;;;11.80;99.90;;;;;;5028593;28;19932;-92
2023/06/27 02:35:09;;;;;;;;;;;11.80;99.90;;;;;;5055247;28;20392;-91
2023/06/27 02:37:35;;;;;;;;;;;11.80;99.90;;;;;;5059178;28;19935;-93
2023/06/27 02:40:01;;;;;;;;;;;11.80;99.90;;;;;;5057567;28;19925;-91
2023/06/27 02:42:26;;;;;;;;;;;11.80;99.90;;;;;;5033749;28;19931;-92
2023/06/27 02:44:52;;;;;;;;;;;11.80;99.90;;;;;;5051530;28;20273;-87
2023/06/27 02:47:18;;;;;;;;;;;11.80;99.90;;;;;;5055515;28;19925;-91
2023/06/27 02:49:44;;;;;;;;;;;11.90;99.90;;;;;;5055642;28;20094;-92
2023/06/27 02:52:10;;;;;;;;;;;11.80;99.90;;;;;;5046452;28;19937;-93
2023/06/27 02:54:35;;;;;;;;;;;11.80;99.90;;;;;;5041461;28;19928;-92
2023/06/27 02:57:01;;;;;;;;;;;11.90;99.90;;;;;;5048586;28;20409;-92
2023/06/27 02:59:27;;;;;;;;;;;11.90;99.90;;;;;;5054603;28;19925;-92
2023/06/27 03:01:52;;;;;;;;;;;11.80;99.90;;;;;;5041089;28;20293;-91
2023/06/27 03:04:20;;;;;;;;;;;11.80;99.90;;;;;;5058623;28;19933;-92
2023/06/27 03:06:45;;;;;;;;;;;11.80;99.90;;;;;;5048996;28;19925;-92
2023/06/27 03:09:11;;;;;;;;;;;11.70;99.90;;;;;;5042432;28;19932;-91
2023/06/27 03:11:42;;;;;;;;;;;11.70;99.90;;;;;;5031376;28;20020;-92
2023/06/27 03:14:08;;;;;;;;;;;11.70;99.90;;;;;;5034151;28;20023;-91
2023/06/27 03:16:33;;;;;;;;;;;11.70;99.90;;;;;;5050382;28;19947;-92
2023/06/27 03:18:59;;;;;;;;;;;11.70;99.90;;;;;;5052577;28;19932;-90
2023/06/27 03:21:25;;;;;;;;;;;11.70;99.90;;;;;;5057672;28;19925;-91
2023/06/27 03:23:50;;;;;;;;;;;11.70;99.90;;;;;;5058441;28;19929;-92
2023/06/27 03:26:16;;;;;;;;;;;11.70;99.90;;;;;;5056619;28;19960;-92
2023/06/27 03:28:41;;;;;;;;;;;11.70;99.90;;;;;;5055386;28;19925;-92
2023/06/27 03:31:07;;;;;;;;;;;11.70;99.90;;;;;;5057093;28;19932;-91
2023/06/27 03:33:33;;;;;;;;;;;11.80;99.90;;;;;;5041285;28;19932;-94
2023/06/27 03:35:58;;;;;;;;;;;11.80;99.90;;;;;;5057908;28;19936;-91
2023/06/27 03:38:24;;;;;;;;;;;11.80;99.90;;;;;;5055699;28;19931;-90
2023/06/27 03:40:49;;;;;;;;;;;11.80;99.90;;;;;;5055651;28;19978;-93
2023/06/27 03:43:15;;;;;;;;;;;11.80;99.90;;;;;;5055315;28;19929;-90
2023/06/27 03:45:41;;;;;;;;;;;11.90;99.90;;;;;;5056388;28;20022;-93
2023/06/27 03:48:07;;;;;;;;;;;11.90;99.90;;;;;;5056293;28;19928;-91
2023/06/27 03:50:32;;;;;;;;;;;12.00;99.90;;;;;;5039593;28;20388;-92
2023/06/27 03:53:00;;;;;;;;;;;12.00;99.90;;;;;;5057422;28;19931;-91
2023/06/27 03:55:26;;;;;;;;;;;12.20;99.90;;;;;;5055988;28;19975;-91
2023/06/27 03:57:52;;;;;;;;;;;12.50;99.90;;;;;;5053097;28;19932;-91
2023/06/27 04:00:17;;;;;;;;;;;12.90;99.90;;;;;;5058282;28;20032;-91
2023/06/27 04:02:43;;;;;;;;;;;13.00;99.90;;;;;;5054499;28;20332;-92
2023/06/27 04:05:09;;;;;;;;;;;13.00;99.90;;;;;;5034474;28;19925;-92
2023/06/27 04:07:34;;;;;;;;;;;13.00;99.90;;;;;;5048158;28;19948;-92
2023/06/27 04:10:00;;;;;;;;;;;13.00;99.90;;;;;;5048880;28;20088;-93
2023/06/27 04:12:25;;;;;;;;;;;13.10;99.90;;;;;;5036817;28;20007;-92
2023/06/27 04:14:51;;;;;;;;;;;13.00;99.90;;;;;;5054528;28;20384;-89
2023/06/27 04:17:17;;;;;;;;;;;13.00;99.90;;;;;;5047278;28;19924;-93
2023/06/27 04:19:42;;;;;;;;;;;13.00;99.90;;;;;;5038633;28;20063;-94
2023/06/27 04:22:08;;;;;;;;;;;13.00;99.90;;;;;;5044319;28;20015;-93
2023/06/27 04:24:33;;;;;;;;;;;13.00;99.90;;;;;;5045318;28;19968;-91
2023/06/27 04:26:59;;;;;;;;;;;13.00;99.90;;;;;;5053670;28;20031;-92
2023/06/27 04:29:25;;;;;;;;;;;13.00;99.90;;;;;;5054160;28;19925;-93
2023/06/27 04:31:50;;;;;;;;;;;13.00;99.90;;;;;;5035832;28;19925;-91
2023/06/27 04:34:16;;;;;;;;;;;13.10;99.90;;;;;;5048338;28;20281;-93
2023/06/27 04:36:42;;;;;;;;;;;13.10;99.90;;;;;;5049811;28;19925;-94
2023/06/27 04:39:08;;;;;;;;;;;13.20;99.90;;;;;;5049829;28;19932;-93
2023/06/27 04:41:34;;;;;;;;;;;13.20;99.90;;;;;;5051529;28;19924;-94
2023/06/27 04:44:00;;;;;;;;;;;13.30;99.90;;;;;;5037765;28;19987;-93
2023/06/27 04:46:29;;;;;;;;;;;13.30;99.90;;;;;;5044796;28;19925;-93
2023/06/27 04:48:56;;;;;;;;;;;13.40;99.90;;;;;;5045589;28;19932;-92
2023/06/27 04:51:23;;;;;;;;;;;13.40;99.90;;;;;;5049828;28;19932;-93
2023/06/27 04:53:49;;;;;;;;;;;13.50;99.90;;;;;;5054327;28;20002;-92
2023/06/27 04:56:15;;;;;;;;;;;13.50;99.90;;;;;;5050469;28;19925;-92
2023/06/27 04:58:40;;;;;;;;;;;13.60;99.90;;;;;;5045268;28;19986;-93
2023/06/27 05:01:06;;;;;;;;;;;13.70;99.90;;;;;;5030218;28;19925;-93
2023/06/27 05:03:31;;;;;;;;;;;13.80;99.90;;;;;;5042562;28;20008;-93
2023/06/27 05:05:57;;;;;;;;;;;13.80;99.90;;;;;;5060999;28;19929;-94
2023/06/27 05:08:22;;;;;;;;;;;13.90;99.90;;;;;;5055857;28;20278;-95
2023/06/27 05:10:48;;;;;;;;;;;14.00;99.90;;;;;;5046333;28;20314;-93
2023/06/27 05:13:14;;;;;;;;;;;14.10;99.90;;;;;;5048630;28;19925;-93
2023/06/27 05:15:40;;;;;;;;;;;14.10;99.90;;;;;;5053405;28;19935;-94
2023/06/27 05:18:05;;;;;;;;;;;14.20;99.90;;;;;;5051458;28;21844;-94
2023/06/27 05:20:31;;;;;;;;;;;14.20;99.90;;;;;;5052520;28;19925;-93
2023/06/27 05:22:56;;;;;;;;;;;14.30;99.90;;;;;;5031392;28;19925;-92
2023/06/27 05:25:22;;;;;;;;;;;14.40;99.90;;;;;;5050330;28;19925;-91
2023/06/27 05:27:48;;;;;;;;;;;14.50;99.90;;;;;;5041993;28;19925;-92
2023/06/27 05:30:13;;;;;;;;;;;14.60;99.90;;;;;;5039838;28;19926;-94
2023/06/27 05:32:39;;;;;;;;;;;14.60;99.90;;;;;;5049404;28;19929;-91
2023/06/27 05:35:05;;;;;;;;;;;14.70;99.90;;;;;;5048887;28;19931;-92
2023/06/27 05:37:30;;;;;;;;;;;14.80;99.90;;;;;;5034122;28;20273;-91
2023/06/27 05:39:56;;;;;;;;;;;14.90;99.90;;;;;;5017132;28;20333;-90
2023/06/27 05:42:21;;;;;;;;;;;15.10;99.90;;;;;;5040449;28;19932;-92
2023/06/27 05:44:47;;;;;;;;;;;15.20;99.90;;;;;;5048782;28;20000;-94
2023/06/27 05:47:13;;;;;;;;;;;15.40;99.90;;;;;;5045454;28;19975;-95
2023/06/27 05:49:39;;;;;;;;;;;15.50;99.90;;;;;;5043521;28;19932;-92
2023/06/27 05:52:04;;;;;;;;;;;15.50;99.90;;;;;;5049811;28;19925;-94
2023/06/27 05:54:30;;;;;;;;;;;15.60;99.90;;;;;;5044309;28;19932;-93
2023/06/27 05:56:55;;;;;;;;;;;15.60;99.90;;;;;;5047660;28;20446;-91
2023/06/27 05:59:21;;;;;;;;;;;15.70;99.90;;;;;;5053338;28;19960;-94
2023/06/27 06:01:47;;;;;;;;;;;15.70;99.90;;;;;;5037420;28;19924;-92
2023/06/27 06:04:14;;;;;;;;;;;15.80;99.90;;;;;;5034847;28;22845;-90
2023/06/27 06:06:40;;;;;;;;;;;15.90;99.90;;;;;;5050446;28;20319;-94
2023/06/27 06:09:05;;;;;;;;;;;16.00;99.90;;;;;;5036186;28;19932;-92
2023/06/27 06:11:34;;;;;;;;;;;15.90;99.90;;;;;;5050718;28;19928;-93
2023/06/27 06:14:03;;;;;;;;;;;16.10;99.90;;;;;;5045761;28;19929;-95
2023/06/27 06:16:33;;;;;;;;;;;16.20;99.90;;;;;;5043975;28;20007;-93
2023/06/27 06:19:02;;;;;;;;;;;16.20;99.90;;;;;;5033639;28;20031;-93
2023/06/27 06:21:28;;;;;;;;;;;16.30;99.90;;;;;;5059665;28;19925;-93
2023/06/27 06:23:53;;;;;;;;;;;16.30;99.90;;;;;;5042024;28;20034;-93
2023/06/27 06:26:19;;;;;;;;;;;16.40;99.90;;;;;;5034681;28;20301;-93
2023/06/27 06:28:45;;;;;;;;;;;16.50;99.90;;;;;;5045609;28;19925;-92
2023/06/27 06:31:11;;;;;;;;;;;16.50;99.90;;;;;;5046744;28;19925;-91
2023/06/27 06:33:38;;;;;;;;;;;16.60;99.90;;;;;;5040178;28;19932;-91
2023/06/27 06:36:04;;;;;;;;;;;16.70;99.90;;;;;;5044626;28;19925;-92
2023/06/27 06:38:29;;;;;;;;;;;16.80;99.90;;;;;;5052478;28;19975;-92
2023/06/27 06:40:55;;;;;;;;;;;16.80;99.90;;;;;;5039198;28;19929;-91
2023/06/27 06:43:23;;;;;;;;;;;16.80;99.90;;;;;;5048514;28;19932;-90
2023/06/27 06:45:49;;;;;;;;;;;16.90;99.90;;;;;;5017740;28;19948;-92
2023/06/27 06:48:14;;;;;;;;;;;17.00;99.90;;;;;;5035630;28;19924;-91
2023/06/27 06:50:41;;;;;;;;;;;17.00;99.90;;;;;;5045632;28;20015;-92
2023/06/27 06:53:07;;;;;;;;;;;17.10;99.90;;;;;;5052283;28;19931;-94
2023/06/27 06:55:32;;;;;;;;;;;17.20;99.90;;;;;;5034823;28;19924;-93
2023/06/27 06:57:58;;;;;;;;;;;17.30;99.90;;;;;;5035307;28;19925;-93
2023/06/27 07:00:23;;;;;;;;;;;17.30;99.90;;;;;;5040270;28;19947;-92
2023/06/27 07:02:49;;;;;;;;;;;17.40;99.90;;;;;;5052669;28;19983;-91
2023/06/27 07:05:15;;;;;;;;;;;17.50;99.90;;;;;;5032496;28;19925;-89
2023/06/27 07:07:40;;;;;;;;;;;17.60;99.90;;;;;;5053662;28;19929;-91
2023/06/27 07:10:06;;;;;;;;;;;17.70;99.90;;;;;;5063437;28;20289;-93
2023/06/27 07:12:32;;;;;;;;;;;17.80;99.90;;;;;;5021425;28;19939;-91
2023/06/27 07:14:58;;;;;;;;;;;17.80;99.90;;;;;;5025779;28;19975;-90
2023/06/27 07:17:23;;;;;;;;;;;17.90;99.90;;;;;;5040171;28;19936;-90
2023/06/27 07:19:49;;;;;;;;;;;18.00;99.90;;;;;;5051003;28;19929;-91
2023/06/27 07:22:15;;;;;;;;;;;18.00;99.90;;;;;;5041706;28;19933;-89
2023/06/27 07:24:40;;;;;;;;;;;18.10;99.90;;;;;;5035287;28;20299;-92
2023/06/27 07:27:06;;;;;;;;;;;18.20;99.90;;;;;;5040632;28;19925;-93
2023/06/27 07:29:32;;;;;;;;;;;18.20;99.90;;;;;;5039793;28;19925;-92
2023/06/27 07:31:57;;;;;;;;;;;18.30;99.90;;;;;;5025140;28;19925;-92
2023/06/27 07:34:23;;;;;;;;;;;18.30;99.90;;;;;;5033256;28;20020;-91
2023/06/27 07:36:48;;;;;;;;;;;18.30;99.90;;;;;;5021730;28;20073;-92
2023/06/27 07:39:14;;;;;;;;;;;18.40;99.90;;;;;;5041195;28;19925;-89
2023/06/27 07:41:40;;;;;;;;;;;18.40;99.90;;;;;;5051907;28;20028;-93
2023/06/27 07:44:05;;;;;;;;;;;18.50;99.90;;;;;;5044978;28;19925;-95
2023/06/27 07:46:31;;;;;;;;;;;18.60;99.90;;;;;;5035212;28;19925;-92
2023/06/27 07:48:59;;;;;;;;;;;18.70;99.90;;;;;;5034005;28;19924;-91
2023/06/27 07:51:26;;;;;;;;;;;18.90;99.90;;;;;;5043028;28;20376;-93
2023/06/27 07:53:51;;;;;;;;;;;19.00;99.90;;;;;;5052940;28;19960;-91
2023/06/27 07:56:18;;;;;;;;;;;19.00;99.90;;;;;;5054442;28;19965;-93
2023/06/27 07:58:44;;;;;;;;;;;19.10;99.90;;;;;;5048777;28;19975;-94
2023/06/27 08:01:10;;;;;;;;;;;19.00;99.90;;;;;;5015256;28;19929;-89
2023/06/27 08:03:36;;;;;;;;;;;19.00;99.90;;;;;;5049494;28;19987;-91
2023/06/27 08:06:05;;;;;;;;;;;19.00;99.90;;;;;;5040169;28;19979;-96
2023/06/27 08:08:31;;;;;;;;;;;19.10;99.90;;;;;;5046589;28;19925;-93
2023/06/27 08:10:57;;;;;;;;;;;19.30;99.90;;;;;;5048037;28;19936;-90
2023/06/27 08:13:23;;;;;;;;;;;19.50;99.90;;;;;;5040914;28;19931;-92
2023/06/27 08:15:49;;;;;;;;;;;19.50;99.90;;;;;;5023056;28;20056;-91
2023/06/27 08:18:14;;;;;;;;;;;19.60;99.90;;;;;;5042394;28;20051;-90
2023/06/27 08:20:40;;;;;;;;;;;19.70;99.90;;;;;;5045745;28;20015;-92
2023/06/27 08:23:06;;;;;;;;;;;19.90;99.90;;;;;;5053923;28;20392;-92
2023/06/27 08:25:32;;;;;;;;;;;20.00;99.90;;;;;;5039508;28;19925;-92
2023/06/27 08:27:57;;;;;;;;;;;20.10;99.90;;;;;;5049495;28;19978;-91
2023/06/27 08:30:23;;;;;;;;;;;20.10;99.90;;;;;;5029457;28;20052;-92
2023/06/27 08:32:49;;;;;;;;;;;20.10;99.90;;;;;;5051978;28;20008;-92
2023/06/27 08:35:15;;;;;;;;;;;20.00;99.90;;;;;;5029865;28;19925;-91
2023/06/27 08:37:40;;;;;;;;;;;19.90;99.90;;;;;;5054895;28;19928;-91
2023/06/27 08:40:06;;;;;;;;;;;19.90;99.90;;;;;;5049111;28;19979;-90
2023/06/27 08:42:32;;;;;;;;;;;20.00;99.90;;;;;;5052780;28;19948;-90
2023/06/27 08:44:58;;;;;;;;;;;20.10;99.90;;;;;;5055180;28;20400;-94
2023/06/27 08:47:26;;;;;;;;;;;20.20;99.90;;;;;;5038468;28;19933;-91
2023/06/27 08:49:54;;;;;;;;;;;20.10;99.90;;;;;;5051072;28;19972;-92
2023/06/27 08:52:20;;;;;;;;;;;19.90;99.90;;;;;;5049441;28;20021;-92
2023/06/27 08:54:52;;;;;;;;;;;19.90;99.90;;;;;;5026610;28;19964;-92
2023/06/27 08:57:19;;;;;;;;;;;19.90;99.90;;;;;;5044738;28;20297;-90
2023/06/27 08:59:46;;;;;;;;;;;20.10;99.90;;;;;;5041627;28;20326;-92
2023/06/27 09:02:13;;;;;;;;;;;20.30;99.90;;;;;;5050115;28;19925;-91
2023/06/27 09:04:41;;;;;;;;;;;20.80;99.90;;;;;;5047235;28;20035;-91
2023/06/27 09:07:07;;;;;;;;;;;20.50;99.90;;;;;;5053805;28;20392;-91
2023/06/27 09:09:34;;;;;;;;;;;20.50;99.90;;;;;;5042329;28;19932;-91
2023/06/27 09:12:01;;;;;;;;;;;20.40;99.90;;;;;;5030970;28;19929;-91
2023/06/27 09:14:26;;;;;;;;;;;20.20;99.60;;;;;;5043268;28;19925;-87
2023/06/27 09:16:52;;;;;;;;;;;20.10;99.90;;;;;;5048083;28;19932;-93
2023/06/27 09:19:19;;;;;;;;;;;20.10;99.70;;;;;;5017333;28;19976;-89
2023/06/27 09:21:47;;;;;;;;;;;20.20;99.90;;;;;;5046145;28;19925;-91
2023/06/27 09:24:14;;;;;;;;;;;20.30;99.90;;;;;;5036713;28;20014;-91
2023/06/27 09:26:40;;;;;;;;;;;20.30;99.90;;;;;;5044118;28;20012;-90
2023/06/27 09:29:05;;;;;;;;;;;20.30;99.90;;;;;;5038642;28;19932;-92
2023/06/27 09:31:32;;;;;;;;;;;20.20;99.90;;;;;;5046224;28;20300;-92
2023/06/27 09:34:05;;;;;;;;;;;20.20;98.80;;;;;;5036197;28;20316;-95
2023/06/27 09:36:32;;;;;;;;;;;20.30;98.80;;;;;;5032963;28;19956;-93
2023/06/27 09:39:04;;;;;;;;;;;20.40;99.40;;;;;;5048899;28;20012;-93
2023/06/27 09:41:41;;;;;;;;;;;20.50;98.60;;;;;;5027257;28;20016;-93
2023/06/27 09:44:10;;;;;;;;;;;20.20;98.80;;;;;;5049397;28;19979;-93
2023/06/27 09:46:36;;;;;;;;;;;20.10;98.90;;;;;;5040999;28;19929;-92
2023/06/27 09:49:04;;;;;;;;;;;20.20;98.70;;;;;;5026419;28;19975;-92
2023/06/27 09:51:32;;;;;;;;;;;20.40;98.00;;;;;;5036191;28;19926;-91
2023/06/27 09:53:58;;;;;;;;;;;20.60;98.90;;;;;;5052803;28;20403;-91
2023/06/27 09:56:30;;;;;;;;;;;20.70;98.90;;;;;;5028988;28;20006;-94
2023/06/27 09:58:56;;;;;;;;;;;20.80;98.80;;;;;;5052320;28;20479;-94
2023/06/27 10:01:24;;;;;;;;;;;21.00;98.60;;;;;;5053464;28;20004;-92
2023/06/27 10:03:50;;;;;;;;;;;20.90;98.80;;;;;;5044037;28;19936;-90
2023/06/27 10:06:16;;;;;;;;;;;20.80;98.70;;;;;;5038489;28;19924;-90
2023/06/27 10:08:42;;;;;;;;;;;20.80;98.00;;;;;;5052836;28;19925;-87
2023/06/27 10:11:07;;;;;;;;;;;21.00;98.30;;;;;;5033122;28;19983;-92
2023/06/27 10:13:33;;;;;;;;;;;21.00;97.60;;;;;;5053517;28;20257;-91
2023/06/27 10:15:59;;;;;;;;;;;21.10;97.10;;;;;;5037038;28;19948;-92
2023/06/27 10:18:25;;;;;;;;;;;20.90;95.80;;;;;;5046478;28;19955;-90
2023/06/27 10:20:54;;;;;;;;;;;20.90;97.10;;;;;;5051943;28;20360;-90
2023/06/27 10:23:20;;;;;;;;;;;21.00;97.70;;;;;;5052343;28;20027;-93
2023/06/27 10:25:46;;;;;;;;;;;21.10;97.30;;;;;;5034202;28;20007;-89
2023/06/27 10:28:13;;;;;;;;;;;21.30;96.80;;;;;;5048676;28;20020;-89
2023/06/27 10:30:46;;;;;;;;;;;21.40;95.40;;;;;;5042830;28;19928;-93
2023/06/27 10:33:31;;;;;;;;;;;21.40;93.20;;;;;;5042182;28;19925;-89
2023/06/27 10:36:15;;;;;;;;;;;21.50;94.70;;;;;;5039982;28;19932;-91
2023/06/27 10:38:41;;;;;;;;;;;21.60;95.70;;;;;;5041010;28;19933;-89
2023/06/27 10:41:11;;;;;;;;;;;21.70;95.20;;;;;;5020150;28;20365;-93
2023/06/27 10:43:40;;;;;;;;;;;21.90;95.50;;;;;;5047311;28;19932;-92
2023/06/27 10:46:07;;;;;;;;;;;22.20;94.90;;;;;;5028176;28;19964;-87
2023/06/27 10:48:33;;;;;;;;;;;22.20;95.20;;;;;;5032713;28;19925;-91
2023/06/27 10:51:08;;;;;;;;;;;22.40;94.20;;;;;;5048341;28;19926;-92
2023/06/27 10:53:33;;;;;;;;;;;22.50;93.80;;;;;;5034555;28;20414;-91
2023/06/27 10:56:13;;;;;;;;;;;22.50;94.10;;;;;;5042892;28;19932;-93
2023/06/27 10:58:44;;;;;;;;;;;22.50;93.80;;;;;;5048178;28;19925;-90
2023/06/27 11:01:09;;;;;;;;;;;22.70;92.90;;;;;;5037375;28;19936;-87
2023/06/27 11:03:37;;;;;;;;;;;22.90;91.20;;;;;;5052329;28;19925;-92
2023/06/27 11:06:04;;;;;;;;;;;22.80;90.40;;;;;;5038383;28;19972;-93
2023/06/27 11:08:30;;;;;;;;;;;22.60;92.60;;;;;;5043041;28;19936;-93
2023/06/27 11:10:58;;;;;;;;;;;22.80;93.30;;;;;;5028772;28;19929;-91
2023/06/27 11:13:26;;;;;;;;;;;22.90;93.40;;;;;;5039041;28;19932;-88
2023/06/27 11:15:53;;;;;;;;;;;22.40;90.30;;;;;;5022873;28;19925;-91
2023/06/27 11:18:19;;;;;;;;;;;22.60;91.20;;;;;;5028505;28;19925;-89
2023/06/27 11:20:45;;;;;;;;;;;22.70;90.00;;;;;;5045910;28;19932;-92
2023/06/27 11:23:12;;;;;;;;;;;22.70;90.00;;;;;;5056707;28;19925;-92
2023/06/27 11:25:38;;;;;;;;;;;22.70;90.60;;;;;;5051282;28;19929;-90
2023/06/27 11:28:03;;;;;;;;;;;22.60;90.50;;;;;;5051674;28;20424;-89
2023/06/27 11:30:30;;;;;;;;;;;22.60;90.60;;;;;;5048031;28;20011;-93
2023/06/27 11:32:56;;;;;;;;;;;22.50;90.60;;;;;;5040663;28;19946;-94
2023/06/27 11:35:22;;;;;;;;;;;22.40;90.80;;;;;;5052351;28;19925;-93
2023/06/27 11:37:52;;;;;;;;;;;22.30;90.90;;;;;;5047892;28;19925;-90
2023/06/27 11:40:18;;;;;;;;;;;22.30;91.60;;;;;;5067920;28;20001;-89
2023/06/27 11:42:44;;;;;;;;;;;22.20;91.20;;;;;;5064563;28;20404;-90
2023/06/27 11:45:10;;;;;;;;;;;22.10;90.90;;;;;;5021976;28;19929;-92
2023/06/27 11:47:36;;;;;;;;;;;22.00;92.10;;;;;;5028710;28;19932;-90
2023/06/27 11:50:08;;;;;;;;;;;22.00;92.00;;;;;;5072109;28;19924;-88
2023/06/27 11:52:35;;;;;;;;;;;22.10;92.20;;;;;;5069453;28;19913;-87
2023/06/27 11:55:05;;;;;;;;;;;22.10;92.30;;;;;;5059727;28;19925;-91
2023/06/27 11:57:51;;;;;;;;;;;22.00;92.10;;;;;;5052820;28;19980;-94
2023/06/27 12:00:18;;;;;;;;;;;22.00;92.00;;;;;;5050195;28;19936;-87
2023/06/27 12:02:47;;;;;;;;;;;21.80;92.30;;;;;;5032858;28;19979;-91
2023/06/27 12:05:15;;;;;;;;;;;21.90;92.20;;;;;;5022776;28;19929;-94
2023/06/27 12:07:42;;;;;;;;;;;22.00;92.50;;;;;;5056948;28;20288;-88
2023/06/27 12:10:08;;;;;;;;;;;22.10;92.70;;;;;;5049742;28;19972;-89
2023/06/27 12:12:38;;;;;;;;;;;22.20;92.70;;;;;;5045194;28;20344;-89
2023/06/27 12:15:10;;;;;;;;;;;22.20;92.40;;;;;;5022175;28;20023;-88
2023/06/27 12:17:36;;;;;;;;;;;22.20;92.50;;;;;;5053551;28;20396;-89
2023/06/27 12:20:02;;;;;;;;;;;22.10;92.00;;;;;;5044694;28;20019;-88
2023/06/27 12:22:28;;;;;;;;;;;22.00;92.60;;;;;;5056165;28;19967;-94
2023/06/27 12:24:53;;;;;;;;;;;22.10;93.60;;;;;;5053294;28;19968;-90
2023/06/27 12:27:19;;;;;;;;;;;21.90;91.50;;;;;;5033356;28;20363;-92
2023/06/27 12:29:45;;;;;;;;;;;22.00;92.50;;;;;;5051629;28;19925;-91
2023/06/27 12:32:10;;;;;;;;;;;22.00;93.00;;;;;;5035507;28;19925;-90
2023/06/27 12:34:36;;;;;;;;;;;21.80;92.60;;;;;;5039773;28;20012;-90
2023/06/27 12:37:01;;;;;;;;;;;22.00;92.60;;;;;;5048438;28;19932;-90
2023/06/27 12:39:27;;;;;;;;;;;22.00;92.20;;;;;;5030926;28;19925;-91
2023/06/27 12:41:53;;;;;;;;;;;21.80;92.50;;;;;;5040310;28;20012;-91
2023/06/27 12:44:18;;;;;;;;;;;21.60;92.00;;;;;;5052991;28;19979;-92
2023/06/27 12:46:46;;;;;;;;;;;21.80;92.30;;;;;;5054546;28;19963;-89
2023/06/27 12:49:12;;;;;;;;;;;21.90;92.40;;;;;;5041534;28;19975;-93
2023/06/27 12:51:37;;;;;;;;;;;21.90;91.10;;;;;;5048118;28;19979;-93
2023/06/27 12:54:03;;;;;;;;;;;22.10;91.40;;;;;;5058204;28;20349;-94
2023/06/27 12:56:28;;;;;;;;;;;22.10;91.10;;;;;;5036781;28;19955;-92
2023/06/27 12:58:54;;;;;;;;;;;22.30;90.90;;;;;;5045814;28;19931;-89
2023/06/27 13:01:23;;;;;;;;;;;22.30;90.80;;;;;;5043355;28;19925;-91
2023/06/27 13:03:49;;;;;;;;;;;22.30;90.00;;;;;;5034769;28;19925;-89
2023/06/27 13:06:15;;;;;;;;;;;22.30;90.20;;;;;;5049293;28;19931;-94
2023/06/27 13:08:42;;;;;;;;;;;22.30;90.00;;;;;;5043106;28;20254;-91
2023/06/27 13:11:07;;;;;;;;;;;22.40;90.80;;;;;;5048934;28;20282;-91
2023/06/27 13:13:33;;;;;;;;;;;22.80;90.70;;;;;;5034062;28;19928;-92
2023/06/27 13:15:59;;;;;;;;;;;23.00;90.40;;;;;;5050255;28;20265;-92
2023/06/27 13:18:24;;;;;;;;;;;22.90;87.90;;;;;;5053931;28;19932;-92
2023/06/27 13:20:51;;;;;;;;;;;22.70;89.10;;;;;;5037038;28;19924;-89
2023/06/27 13:23:17;;;;;;;;;;;22.60;90.10;;;;;;5050715;28;20022;-90
2023/06/27 13:25:44;;;;;;;;;;;22.70;90.30;;;;;;5052194;28;19995;-92
2023/06/27 13:28:12;;;;;;;;;;;22.80;90.20;;;;;;5050708;28;19925;-91
2023/06/27 13:30:38;;;;;;;;;;;22.80;90.20;;;;;;5048040;28;20076;-91
2023/06/27 13:33:03;;;;;;;;;;;22.80;90.40;;;;;;5048816;28;19943;-92
2023/06/27 13:35:29;;;;;;;;;;;22.80;90.30;;;;;;5047314;28;19929;-91
2023/06/27 13:37:54;;;;;;;;;;;22.80;90.90;;;;;;5040930;28;19925;-92
2023/06/27 13:40:20;;;;;;;;;;;22.80;91.00;;;;;;5051123;28;20370;-90
2023/06/27 13:42:46;;;;;;;;;;;22.60;90.50;;;;;;5052485;28;19956;-92
2023/06/27 13:45:11;;;;;;;;;;;22.40;90.40;;;;;;5042120;28;19928;-89
2023/06/27 13:47:37;;;;;;;;;;;22.40;90.20;;;;;;5049788;28;19932;-92
2023/06/27 13:50:03;;;;;;;;;;;22.70;90.30;;;;;;5027872;28;20335;-94
2023/06/27 13:52:29;;;;;;;;;;;22.90;90.20;;;;;;5034851;28;19928;-93
2023/06/27 13:54:55;;;;;;;;;;;22.90;90.50;;;;;;5043922;28;19933;-88
2023/06/27 13:57:20;;;;;;;;;;;23.00;89.50;;;;;;5052436;28;20114;-90
2023/06/27 13:59:46;;;;;;;;;;;23.20;90.00;;;;;;5040591;28;19925;-89
2023/06/27 14:02:12;;;;;;;;;;;23.40;89.60;;;;;;5044463;28;19925;-91
2023/06/27 14:04:38;;;;;;;;;;;23.50;88.50;;;;;;5031139;28;19925;-89
2023/06/27 14:07:04;;;;;;;;;;;23.40;89.30;;;;;;5047554;28;20289;-92
2023/06/27 14:09:29;;;;;;;;;;;23.40;87.00;;;;;;5049738;28;19936;-93
2023/06/27 14:11:55;;;;;;;;;;;23.40;87.30;;;;;;5047752;28;19924;-91